createdAt,value
2019-03-29T00:00:48.908Z,11.47
2019-03-29T00:03:17.900Z,12.23
2019-03-29T00:05:46.794Z,11.13
2019-03-29T00:08:15.684Z,11.53
2019-03-29T00:10:44.676Z,11.37
2019-03-29T00:13:14.736Z,11.75
2019-03-29T00:15:43.896Z,11.53
2019-03-29T00:18:12.787Z,11.57
2019-03-29T00:20:41.781Z,10.73
2019-03-29T00:23:11.390Z,10.90
2019-03-29T00:25:40.380Z,10.27
2019-03-29T00:28:10.956Z,11.10
2019-03-29T00:30:39.907Z,9.70
2019-03-29T00:33:08.898Z,10.83
2019-03-29T00:35:37.789Z,11.37
2019-03-29T00:38:06.586Z,10.73
2019-03-29T00:40:35.470Z,11.20
2019-03-29T00:43:04.358Z,11.37
2019-03-29T00:45:33.249Z,11.50
2019-03-29T00:48:02.139Z,12.03
2019-03-29T00:50:31.032Z,11.63
2019-03-29T00:52:59.919Z,11.90
2019-03-29T00:55:28.810Z,10.57
2019-03-29T00:57:57.705Z,12.03
2019-03-29T01:00:26.593Z,12.50
2019-03-29T01:02:55.587Z,11.33
2019-03-29T01:05:25.087Z,11.15
2019-03-29T01:08:07.028Z,11.27
2019-03-29T01:10:25.901Z,11.40
2019-03-29T01:12:55.331Z,12.07
2019-03-29T01:15:24.242Z,12.30
2019-03-29T01:17:53.132Z,11.43
2019-03-29T01:20:22.167Z,11.33
2019-03-29T01:22:51.119Z,10.97
2019-03-29T01:25:20.011Z,11.90
2019-03-29T01:27:48.902Z,12.20
2019-03-29T01:30:17.896Z,12.10
2019-03-29T01:32:46.786Z,11.93
2019-03-29T01:35:15.677Z,10.90
2019-03-29T01:37:45.979Z,11.50
2019-03-29T01:40:15.244Z,11.47
2019-03-29T01:42:44.939Z,11.57
2019-03-29T01:45:14.215Z,11.13
2019-03-29T01:47:43.107Z,11.40
2019-03-29T01:50:13.121Z,12.23
2019-03-29T01:52:42.014Z,11.73
2019-03-29T01:55:12.133Z,11.78
2019-03-29T01:57:41.024Z,11.63
2019-03-29T02:00:10.631Z,12.40
2019-03-29T02:02:39.523Z,11.40
2019-03-29T02:05:09.344Z,12.13
2019-03-29T02:07:38.456Z,10.97
2019-03-29T02:10:09.003Z,11.20
2019-03-29T02:12:38.159Z,11.23
2019-03-29T02:15:08.560Z,11.53
2019-03-29T02:17:37.972Z,12.73
2019-03-29T02:20:08.310Z,11.83
2019-03-29T02:22:37.393Z,11.30
2019-03-29T02:25:08.982Z,11.67
2019-03-29T02:27:37.959Z,11.73
2019-03-29T02:30:08.632Z,13.37
2019-03-29T02:32:37.483Z,11.80
2019-03-29T02:35:06.673Z,11.67
2019-03-29T02:37:35.573Z,11.97
2019-03-29T02:40:06.271Z,12.10
2019-03-29T02:42:35.092Z,11.60
2019-03-29T02:45:05.126Z,11.30
2019-03-29T02:47:34.002Z,12.90
2019-03-29T02:50:03.207Z,10.90
2019-03-29T02:52:33.735Z,12.30
2019-03-29T02:55:02.627Z,11.87
2019-03-29T02:57:31.516Z,11.13
2019-03-29T03:00:00.651Z,11.10
2019-03-29T03:02:31.242Z,13.03
2019-03-29T03:05:00.531Z,11.00
2019-03-29T03:07:29.441Z,11.23
2019-03-29T03:09:58.427Z,12.03
2019-03-29T03:12:27.322Z,11.40
2019-03-29T03:14:56.208Z,12.47
2019-03-29T03:17:26.536Z,11.85
2019-03-29T03:19:55.425Z,11.57
2019-03-29T03:22:24.313Z,12.33
2019-03-29T03:24:53.212Z,12.40
2019-03-29T03:27:22.097Z,12.60
2019-03-29T03:29:51.091Z,13.27
2019-03-29T03:32:19.982Z,13.50
2019-03-29T03:34:48.875Z,13.30
2019-03-29T03:37:17.765Z,12.80
2019-03-29T03:39:46.656Z,11.83
2019-03-29T03:42:15.554Z,12.15
2019-03-29T03:44:44.438Z,12.30
2019-03-29T03:47:13.329Z,11.45
2019-03-29T03:49:42.219Z,12.10
2019-03-29T03:52:11.521Z,12.43
2019-03-29T03:54:40.414Z,12.37
2019-03-29T03:57:10.839Z,12.15
2019-03-29T03:59:40.235Z,12.17
2019-03-29T04:02:10.158Z,12.60
2019-03-29T04:04:39.054Z,12.70
2019-03-29T04:07:09.065Z,11.70
2019-03-29T04:09:49.307Z,12.83
2019-03-29T04:12:09.188Z,12.73
2019-03-29T04:14:38.095Z,12.30
2019-03-29T04:17:07.797Z,12.78
2019-03-29T04:19:36.697Z,11.60
2019-03-29T04:22:05.692Z,12.40
2019-03-29T04:24:34.581Z,12.60
2019-03-29T04:27:03.474Z,13.30
2019-03-29T04:29:32.362Z,12.23
2019-03-29T04:32:01.254Z,12.93
2019-03-29T04:34:30.248Z,12.73
2019-03-29T04:36:59.150Z,12.93
2019-03-29T04:39:28.028Z,13.47
2019-03-29T04:41:56.922Z,13.07
2019-03-29T04:44:25.810Z,12.93
2019-03-29T04:46:56.627Z,13.37
2019-03-29T04:49:25.540Z,12.30
2019-03-29T04:51:54.429Z,12.50
2019-03-29T04:54:23.322Z,13.00
2019-03-29T04:56:52.218Z,13.50
2019-03-29T04:59:21.103Z,12.93
2019-03-29T05:01:51.007Z,12.47
2019-03-29T05:04:19.809Z,12.37
2019-03-29T05:06:48.702Z,13.63
2019-03-29T05:09:17.593Z,12.83
2019-03-29T05:11:47.626Z,12.33
2019-03-29T05:14:16.500Z,12.83
2019-03-29T05:16:45.391Z,13.20
2019-03-29T05:19:14.304Z,12.88
2019-03-29T05:21:43.171Z,12.63
2019-03-29T05:24:12.068Z,12.35
2019-03-29T05:26:40.970Z,12.67
2019-03-29T05:29:10.765Z,12.53
2019-03-29T05:31:39.658Z,12.70
2019-03-29T05:34:09.571Z,12.65
2019-03-29T05:36:39.490Z,12.93
2019-03-29T05:39:09.488Z,13.54
2019-03-29T05:41:38.401Z,13.20
2019-03-29T05:44:08.208Z,12.70
2019-03-29T05:46:37.100Z,12.30
2019-03-29T05:49:05.995Z,12.53
2019-03-29T05:51:34.819Z,11.80
2019-03-29T05:54:03.812Z,12.47
2019-03-29T05:56:32.670Z,12.43
2019-03-29T05:59:01.559Z,12.47
2019-03-29T06:01:30.474Z,12.80
2019-03-29T06:03:59.340Z,12.57
2019-03-29T06:06:28.238Z,13.10
2019-03-29T06:08:57.124Z,11.87
2019-03-29T06:11:26.041Z,12.57
2019-03-29T06:13:54.907Z,12.90
2019-03-29T06:16:23.796Z,12.28
2019-03-29T06:18:52.687Z,12.63
2019-03-29T06:21:21.575Z,13.30
2019-03-29T06:23:50.468Z,13.47
2019-03-29T06:26:19.358Z,13.27
2019-03-29T06:28:48.255Z,12.37
2019-03-29T06:31:17.450Z,12.85
2019-03-29T06:33:46.753Z,12.63
2019-03-29T06:36:17.250Z,12.78
2019-03-29T06:38:49.767Z,13.70
2019-03-29T06:41:19.777Z,12.73
2019-03-29T06:43:48.767Z,13.70
2019-03-29T06:46:17.760Z,13.53
2019-03-29T06:48:46.655Z,13.80
2019-03-29T06:51:17.222Z,13.78
2019-03-29T06:53:46.173Z,13.57
2019-03-29T06:56:15.167Z,12.85
2019-03-29T06:58:44.062Z,13.20
2019-03-29T07:01:14.487Z,12.93
2019-03-29T07:03:43.477Z,13.87
2019-03-29T07:06:12.577Z,13.28
2019-03-29T07:08:41.469Z,13.70
2019-03-29T07:11:17.815Z,13.85
2019-03-29T07:13:56.244Z,14.83
2019-03-29T07:16:12.750Z,16.52
2019-03-29T07:18:41.641Z,13.87
2019-03-29T07:21:21.534Z,16.77
2019-03-29T07:23:42.083Z,16.07
2019-03-29T07:26:12.202Z,15.60
2019-03-29T07:28:41.096Z,15.60
2019-03-29T07:31:10.397Z,15.10
2019-03-29T07:33:39.285Z,15.10
2019-03-29T07:36:09.201Z,14.03
2019-03-29T07:38:38.098Z,14.33
2019-03-29T07:41:06.984Z,13.87
2019-03-29T07:43:35.880Z,14.60
2019-03-29T07:46:05.801Z,13.47
2019-03-29T07:48:34.786Z,14.40
2019-03-29T07:51:03.678Z,13.17
2019-03-29T07:53:32.565Z,13.60
2019-03-29T07:56:01.558Z,14.20
2019-03-29T07:58:30.449Z,14.73
2019-03-29T08:00:59.342Z,14.70
2019-03-29T08:03:28.233Z,14.17
2019-03-29T08:05:57.123Z,13.77
2019-03-29T08:08:32.072Z,14.18
2019-03-29T08:10:56.648Z,13.93
2019-03-29T08:13:25.541Z,14.77
2019-03-29T08:15:54.454Z,14.27
2019-03-29T08:18:23.422Z,13.40
2019-03-29T08:20:52.314Z,14.93
2019-03-29T08:23:22.743Z,13.23
2019-03-29T08:25:51.637Z,13.37
2019-03-29T08:28:20.525Z,12.80
2019-03-29T08:30:49.518Z,12.70
2019-03-29T08:33:18.409Z,13.20
2019-03-29T08:35:47.300Z,13.90
2019-03-29T08:38:16.192Z,14.77
2019-03-29T08:40:45.457Z,14.37
2019-03-29T08:43:14.385Z,15.28
2019-03-29T08:45:43.274Z,15.00
2019-03-29T08:48:12.165Z,14.63
2019-03-29T08:50:41.083Z,14.87
2019-03-29T08:53:10.462Z,15.50
2019-03-29T08:55:45.603Z,16.63
2019-03-29T08:58:11.219Z,16.60
2019-03-29T09:00:40.212Z,16.30
2019-03-29T09:03:09.299Z,16.47
2019-03-29T09:05:39.270Z,16.43
2019-03-29T09:08:09.112Z,16.67
2019-03-29T09:10:37.920Z,16.87
2019-03-29T09:13:06.819Z,16.57
2019-03-29T09:15:35.703Z,16.20
2019-03-29T09:18:04.697Z,15.60
2019-03-29T09:20:34.602Z,15.57
2019-03-29T09:23:03.809Z,16.10
2019-03-29T09:25:32.824Z,15.97
2019-03-29T09:28:01.776Z,14.90
2019-03-29T09:30:30.692Z,16.40
2019-03-29T09:32:59.580Z,17.73
2019-03-29T09:35:28.471Z,15.47
2019-03-29T09:37:57.362Z,15.63
2019-03-29T09:40:26.565Z,15.37
2019-03-29T09:43:06.667Z,15.30
2019-03-29T09:45:26.288Z,15.60
2019-03-29T09:47:56.029Z,14.90
2019-03-29T09:50:25.262Z,15.27
2019-03-29T09:52:54.191Z,14.77
2019-03-29T09:55:23.082Z,14.60
2019-03-29T09:57:52.076Z,15.13
2019-03-29T10:00:23.449Z,15.10
2019-03-29T10:02:51.802Z,14.77
2019-03-29T10:05:20.719Z,14.83
2019-03-29T10:07:49.594Z,14.70
2019-03-29T10:10:18.650Z,14.57
2019-03-29T10:12:47.574Z,14.97
2019-03-29T10:15:17.999Z,15.43
2019-03-29T10:17:46.891Z,14.07
2019-03-29T10:20:15.888Z,13.88
2019-03-29T10:22:44.776Z,15.00
2019-03-29T10:25:19.853Z,14.20
2019-03-29T10:27:44.915Z,15.10
2019-03-29T10:30:15.549Z,13.47
2019-03-29T10:32:44.540Z,13.03
2019-03-29T10:35:14.354Z,14.70
2019-03-29T10:37:43.247Z,14.13
2019-03-29T10:40:13.059Z,14.53
2019-03-29T10:42:41.949Z,13.80
2019-03-29T10:45:11.866Z,13.98
2019-03-29T10:47:43.926Z,13.57
2019-03-29T10:50:12.512Z,14.13
2019-03-29T10:52:41.402Z,13.67
2019-03-29T10:55:11.529Z,13.83
2019-03-29T10:57:40.413Z,13.97
2019-03-29T11:00:13.591Z,14.37
2019-03-29T11:02:42.500Z,13.50
2019-03-29T11:05:12.533Z,12.93
2019-03-29T11:07:41.407Z,13.93
2019-03-29T11:10:22.180Z,13.60
2019-03-29T11:12:51.132Z,12.53
2019-03-29T11:15:20.165Z,13.40
2019-03-29T11:17:49.065Z,12.37
2019-03-29T11:20:18.773Z,12.53
2019-03-29T11:22:47.861Z,12.33
2019-03-29T11:25:16.754Z,11.90
2019-03-29T11:27:45.642Z,12.17
2019-03-29T11:30:14.576Z,12.80
2019-03-29T11:32:43.631Z,11.70
2019-03-29T11:35:13.039Z,12.80
2019-03-29T11:37:42.006Z,11.90
2019-03-29T11:40:12.765Z,11.40
2019-03-29T11:42:41.652Z,11.83
2019-03-29T11:45:10.785Z,11.47
2019-03-29T11:47:39.641Z,11.70
2019-03-29T11:50:08.933Z,12.03
2019-03-29T11:52:37.941Z,11.53
2019-03-29T11:55:07.366Z,13.53
2019-03-29T11:57:36.229Z,12.97
2019-03-29T12:00:07.636Z,12.73
2019-03-29T12:02:36.570Z,12.03
2019-03-29T12:05:06.484Z,11.63
2019-03-29T12:07:35.375Z,12.53
2019-03-29T12:10:06.082Z,12.60
2019-03-29T12:12:35.001Z,12.40
2019-03-29T12:15:04.631Z,12.70
2019-03-29T12:17:33.502Z,12.23
2019-03-29T12:20:02.392Z,11.67
2019-03-29T12:22:31.283Z,11.10
2019-03-29T12:25:00.347Z,10.30
2019-03-29T12:27:29.168Z,9.77
2019-03-29T12:29:58.058Z,10.33
2019-03-29T12:32:26.955Z,10.57
2019-03-29T12:34:55.842Z,11.33
2019-03-29T12:37:24.733Z,10.30
2019-03-29T12:39:53.625Z,11.70
2019-03-29T12:42:22.601Z,10.83
2019-03-29T12:44:51.608Z,9.47
2019-03-29T12:47:21.013Z,8.23
2019-03-29T12:49:49.902Z,9.43
2019-03-29T12:52:18.798Z,8.13
2019-03-29T12:54:47.685Z,8.83
2019-03-29T12:57:16.580Z,7.90
2019-03-29T12:59:45.468Z,9.97
2019-03-29T13:02:14.462Z,9.70
2019-03-29T13:04:46.781Z,9.43
2019-03-29T13:07:13.983Z,8.78
2019-03-29T13:09:43.037Z,7.93
2019-03-29T13:12:12.175Z,8.88
2019-03-29T13:14:41.072Z,9.30
2019-03-29T13:17:12.215Z,8.83
2019-03-29T13:19:41.102Z,8.60
2019-03-29T13:22:11.719Z,8.83
2019-03-29T13:24:40.630Z,8.00
2019-03-29T13:27:10.644Z,8.33
2019-03-29T13:29:39.535Z,8.60
2019-03-29T13:32:09.221Z,7.33
2019-03-29T13:34:38.135Z,7.10
2019-03-29T13:37:08.050Z,8.07
2019-03-29T13:39:36.944Z,6.83
2019-03-29T13:42:07.449Z,7.57
2019-03-29T13:44:36.364Z,6.77
2019-03-29T13:47:06.965Z,6.50
2019-03-29T13:49:35.783Z,6.30
2019-03-29T13:52:04.672Z,6.47
2019-03-29T13:54:33.567Z,6.50
2019-03-29T13:57:02.461Z,6.60
2019-03-29T13:59:31.918Z,6.33
2019-03-29T14:02:00.957Z,6.20
2019-03-29T14:04:29.847Z,6.30
2019-03-29T14:06:58.739Z,5.80
2019-03-29T14:09:29.308Z,6.00
2019-03-29T14:11:58.365Z,6.27
2019-03-29T14:14:37.641Z,6.80
2019-03-29T14:16:57.885Z,6.23
2019-03-29T14:19:26.777Z,5.77
2019-03-29T14:21:55.669Z,5.67
2019-03-29T14:24:24.561Z,5.80
2019-03-29T14:26:53.451Z,5.60
2019-03-29T14:29:22.343Z,6.50
2019-03-29T14:31:54.056Z,6.78
2019-03-29T14:34:21.867Z,5.53
2019-03-29T14:36:50.760Z,5.55
2019-03-29T14:39:19.648Z,5.70
2019-03-29T14:41:48.539Z,4.60
2019-03-29T14:44:17.581Z,4.65
2019-03-29T14:46:46.527Z,4.65
2019-03-29T14:49:15.418Z,4.73
2019-03-29T14:51:45.539Z,4.97
2019-03-29T14:54:14.428Z,5.50
2019-03-29T14:56:43.321Z,4.28
2019-03-29T14:59:12.211Z,4.82
2019-03-29T15:01:41.102Z,5.00
2019-03-29T15:04:10.283Z,5.00
2019-03-29T15:06:39.190Z,4.90
2019-03-29T15:09:08.286Z,7.00
2019-03-29T15:11:37.181Z,6.12
2019-03-29T15:14:06.070Z,6.00
2019-03-29T15:16:34.959Z,5.90
2019-03-29T15:19:03.954Z,5.37
2019-03-29T15:21:32.950Z,5.65
2019-03-29T15:24:01.844Z,5.20
2019-03-29T15:26:30.733Z,4.80
2019-03-29T15:28:59.624Z,5.33
2019-03-29T15:31:28.512Z,4.50
2019-03-29T15:33:57.403Z,4.97
2019-03-29T15:36:26.297Z,4.07
2019-03-29T15:38:55.185Z,5.08
2019-03-29T15:41:24.076Z,4.22
2019-03-29T15:43:52.969Z,5.12
2019-03-29T15:46:21.863Z,5.42
2019-03-29T15:48:50.749Z,4.60
2019-03-29T15:51:19.646Z,4.65
2019-03-29T15:53:48.532Z,4.30
2019-03-29T15:56:17.423Z,4.75
2019-03-29T15:58:46.312Z,4.25
2019-03-29T16:01:15.207Z,4.00
2019-03-29T16:03:44.099Z,4.45
2019-03-29T16:06:13.092Z,4.72
2019-03-29T16:08:41.982Z,5.20
2019-03-29T16:11:17.162Z,4.90
2019-03-29T16:13:42.324Z,4.37
2019-03-29T16:16:12.142Z,5.26
2019-03-29T16:18:41.029Z,4.30
2019-03-29T16:21:11.048Z,4.24
2019-03-29T16:23:39.947Z,4.37
2019-03-29T16:26:09.664Z,3.82
2019-03-29T16:28:38.649Z,4.60
2019-03-29T16:31:07.932Z,4.50
2019-03-29T16:33:36.835Z,3.75
2019-03-29T16:36:05.931Z,5.47
2019-03-29T16:38:34.852Z,4.00
2019-03-29T16:41:03.718Z,4.50
2019-03-29T16:43:32.531Z,5.53
2019-03-29T16:46:01.802Z,4.03
2019-03-29T16:48:30.875Z,4.33
2019-03-29T16:50:59.899Z,4.80
2019-03-29T16:53:32.095Z,4.43
2019-03-29T16:56:04.752Z,4.83
2019-03-29T16:58:33.630Z,4.83
2019-03-29T17:01:05.242Z,4.40
2019-03-29T17:03:37.597Z,4.67
2019-03-29T17:06:06.473Z,4.30
2019-03-29T17:08:35.802Z,4.03
2019-03-29T17:11:06.508Z,4.10
2019-03-29T17:13:36.911Z,4.92
2019-03-29T17:16:06.216Z,4.00
2019-03-29T17:18:35.110Z,4.83
2019-03-29T17:21:04.120Z,4.15
2019-03-29T17:23:32.986Z,3.60
2019-03-29T17:26:01.877Z,4.12
2019-03-29T17:28:30.871Z,3.73
2019-03-29T17:31:01.300Z,3.80
2019-03-29T17:33:30.194Z,3.70
2019-03-29T17:35:59.086Z,3.80
2019-03-29T17:38:28.074Z,3.87
2019-03-29T17:40:56.967Z,3.53
2019-03-29T17:43:25.858Z,3.17
2019-03-29T17:45:54.669Z,3.53
2019-03-29T17:48:23.538Z,3.62
2019-03-29T17:50:52.429Z,3.50
2019-03-29T17:53:21.318Z,3.27
2019-03-29T17:55:50.213Z,3.70
2019-03-29T17:58:19.103Z,2.97
2019-03-29T18:00:47.991Z,3.17
2019-03-29T18:03:16.790Z,3.30
2019-03-29T18:05:45.674Z,4.37
2019-03-29T18:08:14.673Z,5.83
2019-03-29T18:10:43.464Z,5.17
2019-03-29T18:13:12.349Z,7.75
2019-03-29T18:15:41.238Z,7.90
2019-03-29T18:18:13.131Z,6.90
2019-03-29T18:20:41.581Z,8.27
2019-03-29T18:23:11.608Z,8.48
2019-03-29T18:25:40.490Z,8.10
2019-03-29T18:28:10.509Z,8.10
2019-03-29T18:30:40.859Z,7.60
2019-03-29T18:33:10.545Z,7.90
2019-03-29T18:35:39.947Z,7.30
2019-03-29T18:38:09.449Z,6.90
2019-03-29T18:40:38.344Z,7.17
2019-03-29T18:43:07.736Z,6.60
2019-03-29T18:45:36.642Z,7.23
2019-03-29T18:48:05.532Z,7.57
2019-03-29T18:50:34.423Z,7.00
2019-03-29T18:53:03.348Z,6.80
2019-03-29T18:55:32.310Z,7.07
2019-03-29T18:58:01.195Z,6.40
2019-03-29T19:00:36.592Z,7.17
2019-03-29T19:03:06.034Z,6.90
2019-03-29T19:05:35.037Z,7.73
2019-03-29T19:08:04.341Z,7.03
2019-03-29T19:10:33.438Z,6.53
2019-03-29T19:13:02.325Z,7.77
2019-03-29T19:15:31.320Z,7.67
2019-03-29T19:18:00.208Z,7.07
2019-03-29T19:20:29.101Z,8.13
2019-03-29T19:22:58.022Z,7.93
2019-03-29T19:25:28.315Z,7.42
2019-03-29T19:27:57.313Z,7.90
2019-03-29T19:30:26.508Z,7.25
2019-03-29T19:32:56.935Z,7.57
2019-03-29T19:35:25.827Z,7.57
2019-03-29T19:37:54.821Z,7.17
2019-03-29T19:40:23.916Z,7.80
2019-03-29T19:42:52.910Z,8.17
2019-03-29T19:45:21.905Z,8.33
2019-03-29T19:47:50.797Z,8.07
2019-03-29T19:50:20.095Z,7.73
2019-03-29T19:52:48.986Z,8.60
2019-03-29T19:55:17.913Z,8.63
2019-03-29T19:57:47.364Z,9.27
2019-03-29T20:00:16.556Z,7.90
2019-03-29T20:02:45.572Z,8.87
2019-03-29T20:05:25.544Z,9.00
2019-03-29T20:07:55.586Z,7.77
2019-03-29T20:10:26.286Z,8.55
2019-03-29T20:12:55.286Z,8.73
2019-03-29T20:15:24.367Z,8.43
2019-03-29T20:17:53.361Z,7.83
2019-03-29T20:20:28.471Z,8.63
2019-03-29T20:22:58.926Z,9.07
2019-03-29T20:25:28.024Z,8.47
2019-03-29T20:27:58.659Z,7.70
2019-03-29T20:30:27.851Z,8.43
2019-03-29T20:32:56.747Z,8.57
2019-03-29T20:35:25.743Z,7.87
2019-03-29T20:37:54.667Z,8.67
2019-03-29T20:40:23.619Z,8.13
2019-03-29T20:42:54.046Z,8.03
2019-03-29T20:45:23.041Z,7.93
2019-03-29T20:47:52.163Z,8.20
2019-03-29T20:50:21.129Z,7.17
2019-03-29T20:52:50.023Z,8.27
2019-03-29T20:55:20.346Z,7.83
2019-03-29T20:57:49.236Z,7.30
2019-03-29T21:00:18.947Z,7.60
2019-03-29T21:02:47.941Z,8.13
2019-03-29T21:05:16.837Z,7.50
2019-03-29T21:07:45.727Z,7.57
2019-03-29T21:10:15.122Z,7.12
2019-03-29T21:12:44.018Z,7.60
2019-03-29T21:15:13.837Z,7.70
2019-03-29T21:17:56.030Z,8.07
2019-03-29T21:20:13.457Z,8.03
2019-03-29T21:22:43.782Z,7.73
2019-03-29T21:25:12.984Z,8.28
2019-03-29T21:27:41.870Z,7.23
2019-03-29T21:30:12.931Z,7.50
2019-03-29T21:32:41.806Z,6.90
2019-03-29T21:35:11.514Z,7.85
2019-03-29T21:37:40.408Z,7.03
2019-03-29T21:40:10.870Z,6.92
2019-03-29T21:42:39.831Z,7.40
2019-03-29T21:45:09.975Z,7.72
2019-03-29T21:47:38.847Z,7.17
2019-03-29T21:50:09.180Z,7.77
2019-03-29T21:52:38.157Z,7.17
2019-03-29T21:55:08.465Z,6.90
2019-03-29T21:57:37.376Z,7.00
2019-03-29T22:00:08.922Z,6.40
2019-03-29T22:02:37.814Z,6.77
2019-03-29T22:05:10.376Z,6.37
2019-03-29T22:07:37.952Z,6.77
2019-03-29T22:10:09.310Z,6.53
2019-03-29T22:12:38.400Z,7.00
2019-03-29T22:15:08.975Z,6.43
2019-03-29T22:17:37.920Z,7.00
2019-03-29T22:20:09.976Z,6.80
2019-03-29T22:22:38.972Z,6.70
2019-03-29T22:25:10.175Z,6.45
2019-03-29T22:27:39.016Z,6.90
2019-03-29T22:30:10.412Z,6.43
2019-03-29T22:32:39.258Z,6.87
2019-03-29T22:35:09.368Z,6.97
2019-03-29T22:37:38.378Z,6.13
2019-03-29T22:40:10.727Z,7.00
2019-03-29T22:42:39.632Z,6.37
2019-03-29T22:45:09.882Z,6.37
2019-03-29T22:47:38.750Z,6.23
2019-03-29T22:50:08.081Z,6.63
2019-03-29T22:52:37.039Z,7.17
2019-03-29T22:55:08.393Z,6.37
2019-03-29T22:57:37.385Z,6.63
2019-03-29T23:00:11.884Z,6.00
2019-03-29T23:02:44.111Z,6.00
2019-03-29T23:05:13.273Z,6.45
2019-03-29T23:07:42.166Z,6.30
2019-03-29T23:10:12.079Z,6.17
2019-03-29T23:12:40.973Z,6.27
2019-03-29T23:15:11.222Z,5.97
2019-03-29T23:17:40.093Z,6.53
2019-03-29T23:20:09.518Z,6.50
2019-03-29T23:22:38.385Z,6.83
2019-03-29T23:25:08.512Z,6.57
2019-03-29T23:27:37.395Z,7.10
2019-03-29T23:30:07.489Z,6.33
2019-03-29T23:32:36.402Z,6.60
2019-03-29T23:35:09.541Z,6.77
2019-03-29T23:37:38.384Z,5.97
2019-03-29T23:40:07.598Z,6.30
2019-03-29T23:42:36.576Z,6.63
2019-03-29T23:45:08.644Z,6.93
2019-03-29T23:47:38.969Z,6.13
2019-03-29T23:50:09.175Z,7.05
2019-03-29T23:52:38.081Z,7.43
2019-03-29T23:55:10.622Z,6.03
2019-03-29T23:57:39.549Z,6.87
